Eagle River, Wisconsin
Current Conditions -  °F | °C
As of 8:55 AM on Saturday 20 Dec 2014 (Local Time) from KEGV Reporting Station
Haze Haze  
Wind Chill: 23°   Ceiling: 500
Heat Index: 23°   Visibility: 2mi
Dew Point: 22°   Wind: 0mph
Humidity: 99%   Direction: NA
Pressure: 30.18"   Gusts: NA
Location:  45.92°N, 89.24°W
Report Text: KEGV 201455Z AUTO 00000KT 2SM BR OVC005 M05/M05 A3018 RMK AO2 T10521053
Loading
Personal Weather Stations






























Interactive Weather Map New forecast layout! Learn more

10-Day Weather Forecast

Advertisements
Track Severe Weather on mobile